createdAt,value
2023-01-29T00:01:48.624Z,15.95
2023-01-29T00:04:15.745Z,14.30
2023-01-29T00:06:43.911Z,15.48
2023-01-29T00:09:11.423Z,14.73
2023-01-29T00:11:38.732Z,15.57
2023-01-29T00:14:06.049Z,14.38
2023-01-29T00:16:33.305Z,15.85
2023-01-29T00:19:02.387Z,14.30
2023-01-29T00:21:32.647Z,14.75
2023-01-29T00:24:00.398Z,14.18
2023-01-29T00:26:27.883Z,15.48
2023-01-29T00:28:57.107Z,15.40
2023-01-29T00:31:25.337Z,14.82
2023-01-29T00:33:55.445Z,14.55
2023-01-29T00:36:22.923Z,15.20
2023-01-29T00:38:58.437Z,16.38
2023-01-29T00:41:48.872Z,15.38
2023-01-29T00:44:35.264Z,14.43
2023-01-29T00:47:02.811Z,14.48
2023-01-29T00:49:32.980Z,14.70
2023-01-29T00:52:18.673Z,14.45
2023-01-29T00:54:45.829Z,13.02
2023-01-29T00:57:12.894Z,15.30
2023-01-29T00:59:40.040Z,14.50
2023-01-29T01:02:26.343Z,14.65
2023-01-29T01:04:53.518Z,13.60
2023-01-29T01:07:20.916Z,14.85
2023-01-29T01:10:06.667Z,13.75
2023-01-29T01:12:34.024Z,14.35
2023-01-29T01:15:01.293Z,14.07
2023-01-29T01:17:28.383Z,15.27
2023-01-29T01:19:55.526Z,13.30
2023-01-29T01:22:22.672Z,13.80
2023-01-29T01:24:50.403Z,13.85
2023-01-29T01:27:19.471Z,14.73
2023-01-29T01:29:47.319Z,14.32
2023-01-29T01:32:14.458Z,14.98
2023-01-29T01:34:41.788Z,15.50
2023-01-29T01:37:08.980Z,15.77
2023-01-29T01:39:36.132Z,16.35
2023-01-29T01:42:03.340Z,14.73
2023-01-29T01:44:49.329Z,14.80
2023-01-29T01:47:16.847Z,14.40
2023-01-29T01:49:44.709Z,14.88
2023-01-29T01:52:12.609Z,16.85
2023-01-29T01:54:39.957Z,16.27
2023-01-29T01:57:15.735Z,16.75
2023-01-29T01:59:51.125Z,16.98
2023-01-29T02:02:37.398Z,15.18
2023-01-29T02:05:23.736Z,16.92
2023-01-29T02:08:10.063Z,15.15
2023-01-29T02:10:40.683Z,15.82
2023-01-29T02:13:08.290Z,15.52
2023-01-29T02:15:35.383Z,15.23
2023-01-29T02:18:02.775Z,15.80
2023-01-29T02:20:34.549Z,16.23
2023-01-29T02:23:13.783Z,16.57
2023-01-29T02:25:48.863Z,15.93
2023-01-29T02:28:15.975Z,17.10
2023-01-29T02:30:51.320Z,16.23
2023-01-29T02:33:32.128Z,17.23
2023-01-29T02:36:12.249Z,16.55
2023-01-29T02:38:49.855Z,16.13
2023-01-29T02:41:22.961Z,16.77
2023-01-29T02:43:54.696Z,16.00
2023-01-29T02:46:28.019Z,17.67
2023-01-29T02:49:09.232Z,16.08
2023-01-29T02:51:50.234Z,16.40
2023-01-29T02:54:22.495Z,16.63
2023-01-29T02:56:58.560Z,16.17
2023-01-29T02:59:34.068Z,17.42
2023-01-29T03:02:08.823Z,17.65
2023-01-29T03:04:43.170Z,16.98
2023-01-29T03:07:33.635Z,17.17
2023-01-29T03:10:02.837Z,17.00
2023-01-29T03:12:34.311Z,17.60
2023-01-29T03:15:12.232Z,17.30
2023-01-29T03:17:45.159Z,16.90
2023-01-29T03:20:14.991Z,16.58
2023-01-29T03:22:44.923Z,17.08
2023-01-29T03:25:33.167Z,18.67
2023-01-29T03:28:20.682Z,18.17
2023-01-29T03:31:12.457Z,18.73
2023-01-29T03:34:04.287Z,17.23
2023-01-29T03:36:45.320Z,19.25
2023-01-29T03:39:14.263Z,19.35
2023-01-29T03:41:47.547Z,20.80
2023-01-29T03:44:31.128Z,19.50
2023-01-29T03:47:04.894Z,20.98
2023-01-29T03:49:48.494Z,16.67
2023-01-29T03:52:15.589Z,17.15
2023-01-29T03:54:59.891Z,17.38
2023-01-29T03:57:35.699Z,18.25
2023-01-29T04:00:23.030Z,17.10
2023-01-29T04:05:26.120Z,16.95
2023-01-29T04:08:11.155Z,17.17
2023-01-29T04:10:39.610Z,17.65
2023-01-29T04:13:09.732Z,17.90
2023-01-29T04:15:50.526Z,17.00
2023-01-29T04:18:22.730Z,18.27
2023-01-29T04:21:07.381Z,15.85
2023-01-29T04:23:34.839Z,16.38
2023-01-29T04:26:21.626Z,15.85
2023-01-29T04:28:58.752Z,15.95
2023-01-29T04:31:30.221Z,16.13
2023-01-29T04:34:09.773Z,15.27
2023-01-29T04:36:46.159Z,15.35
2023-01-29T04:39:22.120Z,14.73
2023-01-29T04:41:55.173Z,15.13
2023-01-29T04:44:25.118Z,15.57
2023-01-29T04:47:04.232Z,14.55
2023-01-29T04:49:36.668Z,14.57
2023-01-29T04:52:03.728Z,16.90
2023-01-29T04:54:39.900Z,15.82
2023-01-29T04:57:12.901Z,14.88
2023-01-29T04:59:43.055Z,16.15
2023-01-29T05:02:11.162Z,15.77
2023-01-29T05:04:39.546Z,15.35
2023-01-29T05:07:08.842Z,15.18
2023-01-29T05:09:37.271Z,16.80
2023-01-29T05:12:06.228Z,16.38
2023-01-29T05:14:34.667Z,16.25
2023-01-29T05:17:04.119Z,16.05
2023-01-29T05:19:31.398Z,16.55
2023-01-29T05:21:59.466Z,15.18
2023-01-29T05:24:26.996Z,15.30
2023-01-29T05:27:13.872Z,16.50
2023-01-29T05:29:42.321Z,16.90
2023-01-29T05:32:09.472Z,18.17
2023-01-29T05:34:36.574Z,17.98
2023-01-29T05:37:03.734Z,17.35
2023-01-29T05:39:30.856Z,17.45
2023-01-29T05:41:57.986Z,17.02
2023-01-29T05:44:25.366Z,18.48
2023-01-29T05:46:52.508Z,18.10
2023-01-29T05:49:20.619Z,19.35
2023-01-29T05:51:47.752Z,19.30
2023-01-29T05:54:14.866Z,19.23
2023-01-29T05:56:41.978Z,19.35
2023-01-29T05:59:09.220Z,19.13
2023-01-29T06:01:36.412Z,18.58
2023-01-29T06:04:03.647Z,19.42
2023-01-29T06:06:30.883Z,18.92
2023-01-29T06:08:57.979Z,17.90
2023-01-29T06:11:25.190Z,18.30
2023-01-29T06:13:52.396Z,18.33
2023-01-29T06:16:19.795Z,19.65
2023-01-29T06:18:46.906Z,18.88
2023-01-29T06:21:14.645Z,19.10
2023-01-29T06:23:41.791Z,18.88
2023-01-29T06:26:14.125Z,19.25
2023-01-29T06:28:42.125Z,20.20
2023-01-29T06:31:28.437Z,19.48
2023-01-29T06:33:56.350Z,17.95
2023-01-29T06:36:23.584Z,18.02
2023-01-29T06:38:50.738Z,18.85
2023-01-29T06:41:18.970Z,19.55
2023-01-29T06:43:46.445Z,19.80
2023-01-29T06:46:13.987Z,19.17
2023-01-29T06:48:41.139Z,19.13
2023-01-29T06:51:09.188Z,19.02
2023-01-29T06:53:36.758Z,19.52
2023-01-29T06:56:04.200Z,18.75
2023-01-29T06:58:31.588Z,18.80
2023-01-29T07:01:05.640Z,18.92
2023-01-29T07:03:32.943Z,18.77
2023-01-29T07:06:00.155Z,17.60
2023-01-29T07:08:28.185Z,20.60
2023-01-29T07:11:00.174Z,19.30
2023-01-29T07:13:27.828Z,18.08
2023-01-29T07:15:55.209Z,18.63
2023-01-29T07:18:22.539Z,19.02
2023-01-29T07:20:49.634Z,18.65
2023-01-29T07:23:17.615Z,17.55
2023-01-29T07:25:45.238Z,18.17
2023-01-29T07:28:12.645Z,18.20
2023-01-29T07:30:39.741Z,18.23
2023-01-29T07:33:08.136Z,18.63
2023-01-29T07:35:39.201Z,17.95
2023-01-29T07:38:06.812Z,18.50
2023-01-29T07:40:34.231Z,18.98
2023-01-29T07:43:02.366Z,16.70
2023-01-29T07:45:31.641Z,17.88
2023-01-29T07:47:59.048Z,18.02
2023-01-29T07:50:27.288Z,17.10
2023-01-29T07:52:57.488Z,16.83
2023-01-29T07:55:24.871Z,18.65
2023-01-29T07:58:01.049Z,18.20
2023-01-29T08:00:28.447Z,17.55
2023-01-29T08:03:03.532Z,19.73
2023-01-29T08:05:30.769Z,19.45
2023-01-29T08:08:06.646Z,18.98
2023-01-29T08:10:37.372Z,19.10
2023-01-29T08:13:04.906Z,19.98
2023-01-29T08:15:32.256Z,18.27
2023-01-29T08:17:59.454Z,18.90
2023-01-29T08:20:26.750Z,18.25
2023-01-29T08:23:04.532Z,18.20
2023-01-29T08:25:31.986Z,18.20
2023-01-29T08:27:59.666Z,18.92
2023-01-29T08:30:31.211Z,18.67
2023-01-29T08:32:58.550Z,18.20
2023-01-29T08:35:26.166Z,18.67
2023-01-29T08:37:54.378Z,18.60
2023-01-29T08:40:21.639Z,17.05
2023-01-29T08:42:48.807Z,16.88
2023-01-29T08:45:16.142Z,17.58
2023-01-29T08:47:47.356Z,16.48
2023-01-29T08:50:17.917Z,18.10
2023-01-29T08:52:45.877Z,16.83
2023-01-29T08:55:13.401Z,16.92
2023-01-29T08:57:40.547Z,16.48
2023-01-29T09:00:09.271Z,17.85
2023-01-29T09:02:36.491Z,18.27
2023-01-29T09:05:03.665Z,17.67
2023-01-29T09:07:30.913Z,16.75
2023-01-29T09:09:58.212Z,17.30
2023-01-29T09:12:25.398Z,17.83
2023-01-29T09:14:52.732Z,20.20
2023-01-29T09:17:20.170Z,19.45
2023-01-29T09:19:47.326Z,18.55
2023-01-29T09:22:14.594Z,19.30
2023-01-29T09:24:41.754Z,18.35
2023-01-29T09:27:10.957Z,18.70
2023-01-29T09:29:38.351Z,19.30
2023-01-29T09:32:05.690Z,19.45
2023-01-29T09:34:34.288Z,18.77
2023-01-29T09:37:01.571Z,19.75
2023-01-29T09:39:28.852Z,20.17
2023-01-29T09:42:14.113Z,21.38
2023-01-29T09:44:43.964Z,19.20
2023-01-29T09:47:13.366Z,20.30
2023-01-29T09:49:56.235Z,20.00
2023-01-29T09:54:57.613Z,18.05
2023-01-29T09:57:44.311Z,18.63
2023-01-29T10:00:16.026Z,18.10
2023-01-29T10:03:11.048Z,19.95
2023-01-29T10:05:44.423Z,18.05
2023-01-29T10:08:14.435Z,18.35
2023-01-29T10:10:44.655Z,18.33
2023-01-29T10:13:16.176Z,17.73
2023-01-29T10:15:51.480Z,17.17
2023-01-29T10:18:21.714Z,18.25
2023-01-29T10:21:09.824Z,18.73
2023-01-29T10:23:40.926Z,17.42
2023-01-29T10:26:12.243Z,17.13
2023-01-29T10:28:45.842Z,18.98
2023-01-29T10:31:16.071Z,18.52
2023-01-29T10:34:01.504Z,18.80
2023-01-29T10:36:34.904Z,18.55
2023-01-29T10:41:47.913Z,17.70
2023-01-29T10:44:14.990Z,17.60
2023-01-29T10:47:20.545Z,17.95
2023-01-29T10:49:50.585Z,20.15
2023-01-29T10:52:20.457Z,19.70
2023-01-29T10:54:50.438Z,19.10
2023-01-29T10:57:23.963Z,18.88
2023-01-29T10:59:51.076Z,20.60
2023-01-29T11:02:19.789Z,17.08
2023-01-29T11:04:47.061Z,18.17
2023-01-29T11:07:15.325Z,19.02
2023-01-29T11:09:58.467Z,17.10
2023-01-29T11:12:31.328Z,17.42
2023-01-29T11:15:07.715Z,17.75
2023-01-29T11:17:34.901Z,18.45
2023-01-29T11:20:01.974Z,19.15
2023-01-29T11:22:30.332Z,19.33
2023-01-29T11:25:16.279Z,18.27
2023-01-29T11:27:48.620Z,19.88
2023-01-29T11:30:19.163Z,19.30
2023-01-29T11:32:50.881Z,19.73
2023-01-29T11:35:18.646Z,19.80
2023-01-29T11:37:46.318Z,20.17
2023-01-29T11:40:19.438Z,19.58
2023-01-29T11:42:47.362Z,18.00
2023-01-29T11:45:20.702Z,19.17
2023-01-29T11:47:56.213Z,19.92
2023-01-29T11:50:25.926Z,19.95
2023-01-29T11:52:53.425Z,17.88
2023-01-29T11:55:23.044Z,18.33
2023-01-29T11:57:55.104Z,18.58
2023-01-29T12:00:33.917Z,20.88
2023-01-29T12:03:20.515Z,20.90
2023-01-29T12:05:55.073Z,19.42
2023-01-29T12:08:23.657Z,21.10
2023-01-29T12:10:50.805Z,20.92
2023-01-29T12:13:28.570Z,23.20
2023-01-29T12:16:09.910Z,18.83
2023-01-29T12:18:38.939Z,19.10
2023-01-29T12:21:10.924Z,19.30
2023-01-29T12:23:57.144Z,20.13
2023-01-29T12:26:33.216Z,19.88
2023-01-29T12:29:18.928Z,19.90
2023-01-29T12:31:58.007Z,18.77
2023-01-29T12:34:45.443Z,22.73
2023-01-29T12:37:31.094Z,21.27
2023-01-29T12:39:58.563Z,20.70
2023-01-29T12:42:25.838Z,22.70
2023-01-29T12:44:52.956Z,21.23
2023-01-29T12:47:23.935Z,20.55
2023-01-29T12:49:52.912Z,20.35
2023-01-29T12:52:23.824Z,20.77
2023-01-29T12:54:54.395Z,21.70
2023-01-29T12:57:23.873Z,21.08
2023-01-29T12:59:57.321Z,21.50
2023-01-29T13:02:31.346Z,21.58
2023-01-29T13:05:05.026Z,23.23
2023-01-29T13:07:33.878Z,22.55
2023-01-29T13:10:05.680Z,23.45
2023-01-29T13:12:33.940Z,23.63
2023-01-29T13:15:06.155Z,22.75
2023-01-29T13:17:33.875Z,25.83
2023-01-29T13:20:17.521Z,23.30
2023-01-29T13:22:45.649Z,22.80
2023-01-29T13:25:17.169Z,25.45
2023-01-29T13:27:47.512Z,26.35
2023-01-29T13:30:34.789Z,26.58
2023-01-29T13:33:09.432Z,25.90
2023-01-29T13:35:42.482Z,26.17
2023-01-29T13:38:23.810Z,27.52
2023-01-29T13:40:53.890Z,27.35
2023-01-29T13:43:22.482Z,28.55
2023-01-29T13:45:51.449Z,28.42
2023-01-29T13:48:28.898Z,29.23
2023-01-29T13:50:57.106Z,27.83
2023-01-29T13:53:35.167Z,31.83
2023-01-29T13:56:21.289Z,29.40
2023-01-29T13:58:48.841Z,29.27
2023-01-29T14:01:15.986Z,31.25
2023-01-29T14:04:02.193Z,32.55
2023-01-29T14:06:45.185Z,31.63
2023-01-29T14:09:33.324Z,31.95
2023-01-29T14:12:00.709Z,34.85
2023-01-29T14:14:57.077Z,33.80
2023-01-29T14:17:26.391Z,33.50
2023-01-29T14:20:03.710Z,34.45
2023-01-29T14:22:33.807Z,34.50
2023-01-29T14:25:03.865Z,34.80
2023-01-29T14:27:32.711Z,35.90
2023-01-29T14:30:04.223Z,34.55
2023-01-29T14:32:31.440Z,34.05
2023-01-29T14:35:03.189Z,32.65
2023-01-29T14:37:33.321Z,33.80
2023-01-29T14:40:13.680Z,36.20
2023-01-29T14:42:46.570Z,34.38
2023-01-29T14:45:29.103Z,35.10
2023-01-29T14:47:58.147Z,35.03
2023-01-29T14:50:37.706Z,34.50
2023-01-29T14:53:23.793Z,33.08
2023-01-29T14:56:14.074Z,33.92
2023-01-29T14:58:44.260Z,33.58
2023-01-29T15:01:20.156Z,30.85
2023-01-29T15:03:49.768Z,30.52
2023-01-29T15:06:19.128Z,32.40
2023-01-29T15:08:50.013Z,31.10
2023-01-29T15:11:34.345Z,30.17
2023-01-29T15:14:08.331Z,30.30
2023-01-29T15:16:49.127Z,30.40
2023-01-29T15:19:22.161Z,32.10
2023-01-29T15:22:09.319Z,29.73
2023-01-29T15:24:38.342Z,31.67
2023-01-29T15:27:07.588Z,31.50
2023-01-29T15:29:35.537Z,32.30
2023-01-29T15:32:02.785Z,33.63
2023-01-29T15:34:29.991Z,32.28
2023-01-29T15:36:57.329Z,33.67
2023-01-29T15:39:26.943Z,33.35
2023-01-29T15:42:05.598Z,32.63
2023-01-29T15:44:33.901Z,31.73
2023-01-29T15:47:01.873Z,34.15
2023-01-29T15:49:33.585Z,34.03
2023-01-29T15:52:03.616Z,32.53
2023-01-29T15:54:34.584Z,32.78
2023-01-29T15:57:04.096Z,33.13
2023-01-29T15:59:35.976Z,30.55
2023-01-29T16:02:22.065Z,32.53
2023-01-29T16:04:49.370Z,33.78
2023-01-29T16:07:17.684Z,31.67
2023-01-29T16:09:45.021Z,31.50
2023-01-29T16:12:13.380Z,31.67
2023-01-29T16:14:41.861Z,31.77
2023-01-29T16:17:35.040Z,32.42
2023-01-29T16:20:05.204Z,30.75
2023-01-29T16:22:34.270Z,31.27
2023-01-29T16:25:12.150Z,28.33
2023-01-29T16:27:43.208Z,29.67
2023-01-29T16:30:11.160Z,30.17
2023-01-29T16:32:38.452Z,30.25
2023-01-29T16:35:05.838Z,32.33
2023-01-29T16:37:35.734Z,29.27
2023-01-29T16:40:13.275Z,30.50
2023-01-29T16:42:41.983Z,30.60
2023-01-29T16:45:28.720Z,30.23
2023-01-29T16:48:02.905Z,29.45
2023-01-29T16:50:53.937Z,29.80
2023-01-29T16:53:25.109Z,28.67
2023-01-29T16:55:53.135Z,29.95
2023-01-29T16:58:21.828Z,28.80
2023-01-29T17:00:52.614Z,29.45
2023-01-29T17:03:22.083Z,28.35
2023-01-29T17:05:50.838Z,28.27
2023-01-29T17:08:30.314Z,29.02
2023-01-29T17:10:57.681Z,27.88
2023-01-29T17:13:29.094Z,29.90
2023-01-29T17:16:00.056Z,27.48
2023-01-29T17:18:27.384Z,28.33
2023-01-29T17:20:54.726Z,28.60
2023-01-29T17:23:29.066Z,28.38
2023-01-29T17:26:00.124Z,28.10
2023-01-29T17:28:27.449Z,27.63
2023-01-29T17:31:05.813Z,27.10
2023-01-29T17:33:34.511Z,27.50
2023-01-29T17:36:01.671Z,28.73
2023-01-29T17:38:28.842Z,26.67
2023-01-29T17:41:07.838Z,28.40
2023-01-29T17:43:35.480Z,28.58
2023-01-29T17:46:02.715Z,29.23
2023-01-29T17:48:30.887Z,26.05
2023-01-29T17:50:59.883Z,28.40
2023-01-29T17:53:43.269Z,27.73
2023-01-29T17:56:15.703Z,27.95
2023-01-29T17:58:43.127Z,27.98
2023-01-29T18:01:10.275Z,28.50
2023-01-29T18:03:37.534Z,26.63
2023-01-29T18:06:07.278Z,28.17
2023-01-29T18:08:35.305Z,25.95
2023-01-29T18:11:02.511Z,27.25
2023-01-29T18:13:29.695Z,26.88
2023-01-29T18:15:56.857Z,27.52
2023-01-29T18:18:24.640Z,29.05
2023-01-29T18:20:51.934Z,27.88
2023-01-29T18:23:19.269Z,27.38
2023-01-29T18:25:46.491Z,27.75
2023-01-29T18:28:15.934Z,27.42
2023-01-29T18:30:44.327Z,26.92
2023-01-29T18:33:12.897Z,27.98
2023-01-29T18:35:40.211Z,27.30
2023-01-29T18:38:07.332Z,27.60
2023-01-29T18:40:34.506Z,27.13
2023-01-29T18:43:01.735Z,26.17
2023-01-29T18:45:29.108Z,26.67
2023-01-29T18:47:56.304Z,26.95
2023-01-29T18:50:24.940Z,28.40
2023-01-29T18:52:52.288Z,24.98
2023-01-29T18:55:19.616Z,26.35
2023-01-29T18:58:26.997Z,25.88
2023-01-29T19:00:34.123Z,26.02
2023-01-29T19:03:01.297Z,24.85
2023-01-29T19:05:28.525Z,25.88
2023-01-29T19:07:55.753Z,27.00
2023-01-29T19:10:23.135Z,26.10
2023-01-29T19:12:50.703Z,26.33
2023-01-29T19:15:22.794Z,27.98
2023-01-29T19:20:18.321Z,26.05
2023-01-29T19:22:45.750Z,26.30
2023-01-29T19:25:13.046Z,26.83
2023-01-29T19:27:40.340Z,24.52
2023-01-29T19:30:07.993Z,26.45
2023-01-29T19:32:35.394Z,27.08
2023-01-29T19:35:02.607Z,25.67
2023-01-29T19:37:30.832Z,26.88
2023-01-29T19:40:01.072Z,26.90
2023-01-29T19:42:28.253Z,26.85
2023-01-29T19:44:55.408Z,25.38
2023-01-29T19:47:22.795Z,26.83
2023-01-29T19:49:50.278Z,27.08
2023-01-29T19:52:51.138Z,26.33
2023-01-29T19:55:20.072Z,29.33
2023-01-29T19:57:47.747Z,25.10
2023-01-29T20:00:17.301Z,25.63
2023-01-29T20:02:44.495Z,25.55
2023-01-29T20:05:12.915Z,25.65
2023-01-29T20:07:42.281Z,25.75
2023-01-29T20:10:11.452Z,26.95
2023-01-29T20:12:39.146Z,27.08
2023-01-29T20:15:07.465Z,26.70
2023-01-29T20:17:34.698Z,25.00
2023-01-29T20:20:02.691Z,26.17
2023-01-29T20:22:29.952Z,26.45
2023-01-29T20:24:57.835Z,25.98
2023-01-29T20:27:30.991Z,25.90
2023-01-29T20:29:58.237Z,26.23
2023-01-29T20:32:28.518Z,27.15
2023-01-29T20:34:55.616Z,26.42
2023-01-29T20:37:22.720Z,26.75
2023-01-29T20:39:50.404Z,25.77
2023-01-29T20:42:17.766Z,26.13
2023-01-29T20:44:44.946Z,27.23
2023-01-29T20:47:12.137Z,24.15
2023-01-29T20:49:39.303Z,24.38
2023-01-29T20:52:07.523Z,24.08
2023-01-29T20:54:34.750Z,24.45
2023-01-29T20:57:01.913Z,25.10
2023-01-29T20:59:29.229Z,25.60
2023-01-29T21:01:56.557Z,26.30
2023-01-29T21:04:23.826Z,23.77
2023-01-29T21:06:51.052Z,22.63
2023-01-29T21:09:18.199Z,26.58
2023-01-29T21:11:45.358Z,25.35
2023-01-29T21:14:12.570Z,24.40
2023-01-29T21:16:39.742Z,24.10
2023-01-29T21:19:10.929Z,24.77
2023-01-29T21:21:38.087Z,24.10
2023-01-29T21:24:05.323Z,25.85
2023-01-29T21:26:32.560Z,22.70
2023-01-29T21:28:59.730Z,24.05
2023-01-29T21:31:26.972Z,25.50
2023-01-29T21:33:54.214Z,25.63
2023-01-29T21:36:21.443Z,22.80
2023-01-29T21:38:48.799Z,27.02
2023-01-29T21:41:15.946Z,26.92
2023-01-29T21:43:43.331Z,22.75
2023-01-29T21:46:13.482Z,25.63
2023-01-29T21:48:40.931Z,23.70
2023-01-29T21:51:08.236Z,24.67
2023-01-29T21:53:36.665Z,25.70
2023-01-29T21:56:05.350Z,25.77
2023-01-29T21:58:32.551Z,25.88
2023-01-29T22:01:35.876Z,25.13
2023-01-29T22:03:47.714Z,25.08
2023-01-29T22:06:15.216Z,26.25
2023-01-29T22:08:42.321Z,27.00
2023-01-29T22:11:09.905Z,25.77
2023-01-29T22:13:37.278Z,27.38
2023-01-29T22:16:05.888Z,26.52
2023-01-29T22:18:33.286Z,26.70
2023-01-29T22:21:02.549Z,28.20
2023-01-29T22:23:30.619Z,25.55
2023-01-29T22:26:04.793Z,26.50
2023-01-29T22:28:31.894Z,26.42
2023-01-29T22:31:02.617Z,26.80
2023-01-29T22:33:29.997Z,25.00
2023-01-29T22:35:57.225Z,25.35
2023-01-29T22:38:24.431Z,25.95
2023-01-29T22:40:55.108Z,27.20
2023-01-29T22:43:22.540Z,25.90
2023-01-29T22:45:49.745Z,26.25
2023-01-29T22:48:16.831Z,25.70
2023-01-29T22:50:52.962Z,26.50
2023-01-29T22:53:20.457Z,26.65
2023-01-29T22:55:54.513Z,26.88
2023-01-29T22:58:21.772Z,25.67
2023-01-29T23:00:51.096Z,26.05
2023-01-29T23:03:18.333Z,25.92
2023-01-29T23:05:45.417Z,24.65
2023-01-29T23:08:12.561Z,27.90
2023-01-29T23:10:39.739Z,25.50
2023-01-29T23:13:07.021Z,26.88
2023-01-29T23:15:34.226Z,23.88
2023-01-29T23:18:01.442Z,27.45
2023-01-29T23:20:28.549Z,27.23
2023-01-29T23:22:56.138Z,27.67
2023-01-29T23:25:43.295Z,26.92
2023-01-29T23:28:10.652Z,26.77
2023-01-29T23:30:37.935Z,27.17
2023-01-29T23:33:05.601Z,28.58
2023-01-29T23:35:33.332Z,26.30
2023-01-29T23:38:00.887Z,27.90
2023-01-29T23:40:28.532Z,25.65
2023-01-29T23:42:55.968Z,26.55
2023-01-29T23:45:23.364Z,27.45
2023-01-29T23:47:50.585Z,28.42
2023-01-29T23:50:18.631Z,28.20
2023-01-29T23:52:46.042Z,29.30
2023-01-29T23:55:13.734Z,28.05
2023-01-29T23:57:40.880Z,26.48
